Time;durP1;ratioP1;P1;durP2;ratioP2;P2;SDS_P1;SDS_P2;PMS_P1;PMS_P2;Temp;Humidity;BMP_temperature;BMP_pressure;BME280_temperature;BME280_humidity;BME280_pressure;Samples;Min_cycle;Max_cycle;Signal;HPM_P1;HPM_P2
2021/06/09 00:01:26;;;;;;;;;;;;;;;22.18;30.57;101715.34;5026567;27;100284;-70
2021/06/09 00:03:53;;;;;;;;;;;;;;;22.14;30.47;101724.44;5021499;27;97144;-70
2021/06/09 00:06:20;;;;;;;;;;;;;;;22.17;30.48;101713.53;5018087;27;97885;-70
2021/06/09 00:08:49;;;;;;;;;;;;;;;22.19;30.47;101711.72;5013581;28;97886;-69
2021/06/09 00:11:16;;;;;;;;;;;;;;;22.14;30.60;101722.63;5016190;27;97601;-69
2021/06/09 00:13:44;;;;;;;;;;;;;;;22.13;30.54;101717.22;5023171;27;96950;-69
2021/06/09 00:16:12;;;;;;;;;;;;;;;22.10;30.50;101722.66;5043807;27;97113;-69
2021/06/09 00:18:39;;;;;;;;;;;;;;;22.07;30.51;101715.50;5016409;27;97158;-70
2021/06/09 00:21:06;;;;;;;;;;;;;;;22.09;30.30;101719.06;5042773;27;99431;-70
2021/06/09 00:23:34;;;;;;;;;;;;;;;22.09;30.08;101723.59;5044168;27;96979;-70
2021/06/09 00:26:04;;;;;;;;;;;;;;;22.05;30.42;101719.13;5021312;27;97023;-70
2021/06/09 00:28:32;;;;;;;;;;;;;;;22.03;30.41;101721.84;5022237;27;97659;-70
2021/06/09 00:30:59;;;;;;;;;;;;;;;21.99;30.47;101719.19;5020047;27;99509;-70
2021/06/09 00:33:29;;;;;;;3.15;2.92;;;;;;;21.84;30.67;101715.72;5045336;22;97263;31
2021/06/09 00:35:58;;;;;;;3.28;3.05;;;;;;;21.91;31.08;101716.56;4998027;28;99033;-72
2021/06/09 00:38:26;;;;;;;4.20;3.40;;;;;;;21.77;29.61;101711.31;5007286;28;99320;-72
2021/06/09 00:40:53;;;;;;;2.85;2.75;;;;;;;21.84;30.03;101715.72;5010532;28;97704;-72
2021/06/09 00:43:23;;;;;;;2.70;2.60;;;;;;;21.83;30.08;101713.97;5009295;28;97031;-72
2021/06/09 00:45:54;;;;;;;3.17;3.08;;;;;;;21.75;28.81;101710.41;5003199;28;96839;-72
2021/06/09 00:48:25;;;;;;;2.97;2.87;;;;;;;21.72;28.59;101713.16;5009868;28;97627;-72
2021/06/09 00:50:53;;;;;;;2.92;2.72;;;;;;;21.88;28.77;101714.78;5012912;28;97837;-71
2021/06/09 00:53:33;;;;;;;3.00;2.90;;;;;;;21.87;28.99;101715.69;5010837;28;96996;-72
2021/06/09 00:56:03;;;;;;;2.95;2.75;;;;;;;21.80;28.16;101710.34;4999401;28;96675;-72
2021/06/09 00:58:31;;;;;;;3.10;2.90;;;;;;;21.75;27.51;101710.41;5007484;28;101206;-71
2021/06/09 01:00:59;;;;;;;2.92;2.63;;;;;;;21.75;27.32;101717.63;5007867;28;97401;-72
2021/06/09 01:03:27;;;;;;;2.60;2.50;;;;;;;21.77;27.11;101703.16;5006049;28;97458;-71
2021/06/09 01:05:54;;;;;;;2.90;2.70;;;;;;;21.81;26.74;101704.94;5005972;28;96868;-71
2021/06/09 01:08:22;;;;;;;2.83;2.67;;;;;;;21.80;27.05;101707.63;4986063;28;99210;-71
2021/06/09 01:10:50;;;;;;;2.93;2.70;;;;;;;21.86;26.91;101708.50;5004829;28;97959;-72
2021/06/09 01:13:20;;;;;;;3.05;2.75;;;;;;;21.85;27.00;101712.09;5003307;28;97866;-72
2021/06/09 01:15:49;;;;;;;2.80;2.70;;;;;;;21.92;26.73;101703.00;5010143;28;96966;-72
2021/06/09 01:18:17;;;;;;;2.80;2.70;;;;;;;21.97;26.67;101713.78;5004264;28;97908;-72
2021/06/09 01:20:45;;;;;;;2.72;2.53;;;;;;;21.97;26.52;101723.72;5008791;28;97856;-72
2021/06/09 01:23:19;;;;;;;2.42;2.33;;;;;;;21.97;26.11;101704.75;5006195;28;98066;-72
2021/06/09 01:25:47;;;;;;;2.70;2.50;;;;;;;21.94;26.09;101708.41;4982778;28;97389;-71
2021/06/09 01:28:15;;;;;;;2.95;2.60;;;;;;;21.98;26.14;101711.97;4998695;28;100225;-71
2021/06/09 01:30:44;;;;;;;2.20;2.10;;;;;;;21.92;26.07;101705.72;5004404;28;98903;-71
2021/06/09 01:33:13;;;;;;;2.45;2.35;;;;;;;21.91;26.00;101694.88;5000336;28;96731;-71
2021/06/09 01:36:07;;;;;;;2.50;2.40;;;;;;;21.91;26.16;101703.91;4997182;28;97461;-71
2021/06/09 01:39:25;;;;;;;2.60;2.40;;;;;;;21.94;26.09;101700.28;5015473;28;98989;-71
2021/06/09 01:41:55;;;;;;;2.60;2.50;;;;;;;21.89;26.08;101708.44;5006196;28;96859;-71
2021/06/09 01:44:22;;;;;;;2.70;2.50;;;;;;;21.91;25.80;101705.72;5003420;28;97288;-71
2021/06/09 01:46:49;;;;;;;2.70;2.53;;;;;;;21.89;25.73;101700.31;5005180;28;97215;-72
2021/06/09 01:49:17;;;;;;;3.43;2.40;;;;;;;21.87;25.76;101699.44;5009093;28;97203;-72
2021/06/09 01:51:44;;;;;;;2.50;2.40;;;;;;;21.90;25.68;101699.41;4999366;28;101647;-72
2021/06/09 01:54:12;;;;;;;2.42;2.33;;;;;;;21.89;25.68;101697.59;5007342;28;97066;-71
2021/06/09 01:56:41;;;;;;;2.25;2.20;;;;;;;21.92;25.64;101704.81;5001936;28;98080;-72
2021/06/09 01:59:10;;;;;;;2.72;2.53;;;;;;;21.90;25.57;101704.84;5006499;28;99193;-71
2021/06/09 02:01:37;;;;;;;2.90;2.70;;;;;;;21.93;25.32;101707.50;5001933;28;98762;-71
2021/06/09 02:04:05;;;;;;;2.58;2.47;;;;;;;21.89;25.52;101703.03;5010006;28;97190;-71
2021/06/09 02:06:38;;;;;;;2.40;2.30;;;;;;;21.89;25.37;101705.72;4996183;28;97405;-72
2021/06/09 02:09:06;;;;;;;2.35;2.25;;;;;;;21.92;25.34;101705.72;4993822;28;98621;-71
2021/06/09 02:11:34;;;;;;;3.45;2.40;;;;;;;21.90;25.39;101710.25;5010300;28;100635;-71
2021/06/09 02:14:02;;;;;;;2.20;2.10;;;;;;;21.88;25.45;101703.94;5004365;28;97678;-71
2021/06/09 02:16:34;;;;;;;2.25;2.00;;;;;;;21.92;25.32;101711.13;5007181;28;96973;-71
2021/06/09 02:19:02;;;;;;;2.22;2.10;;;;;;;21.92;25.05;101708.44;5005739;28;99556;-72
2021/06/09 02:21:30;;;;;;;2.17;2.10;;;;;;;21.93;25.10;101703.88;5024289;27;100051;-71
2021/06/09 02:23:58;;;;;;;2.40;2.30;;;;;;;21.92;24.95;101702.09;5014104;28;97248;-71
2021/06/09 02:26:26;;;;;;;2.20;2.10;;;;;;;21.85;25.18;101694.97;4995128;28;97481;-71
2021/06/09 02:28:53;;;;;;;2.53;2.33;;;;;;;21.83;25.05;101703.13;5008274;28;97215;-72
2021/06/09 02:31:22;;;;;;;2.42;2.22;;;;;;;21.82;25.38;101704.00;5009712;28;97587;-71
2021/06/09 02:33:50;;;;;;;2.15;2.05;;;;;;;21.78;25.35;101702.25;5002878;28;97388;-71
2021/06/09 02:36:17;;;;;;;2.35;2.15;;;;;;;21.79;25.56;101717.59;5007876;28;96650;-71
2021/06/09 02:38:45;;;;;;;2.50;2.30;;;;;;;21.79;25.69;101708.56;5006426;28;97642;-72
2021/06/09 02:41:12;;;;;;;2.95;2.78;;;;;;;21.82;25.50;101709.44;5008761;28;99277;-72
2021/06/09 02:43:43;;;;;;;2.83;2.70;;;;;;;21.81;25.52;101704.94;4990544;28;96773;-72
2021/06/09 02:46:13;;;;;;;3.00;2.70;;;;;;;21.81;25.47;101707.66;4998640;28;97583;-72
2021/06/09 02:48:46;;;;;;;2.90;2.70;;;;;;;21.88;25.13;101708.47;5002948;28;97641;-73
2021/06/09 02:51:19;;;;;;;3.13;2.73;;;;;;;21.88;25.31;101706.66;4987951;28;96896;-71
2021/06/09 02:53:54;;;;;;;2.60;2.50;;;;;;;21.88;25.36;101712.09;5003006;28;97442;-71
2021/06/09 02:56:25;;;;;;;2.70;2.58;;;;;;;21.83;25.58;101699.50;5003322;28;97256;-71
2021/06/09 02:58:59;;;;;;;2.58;2.38;;;;;;;21.82;25.66;101709.44;5001903;28;98853;-70
2021/06/09 03:01:29;;;;;;;3.10;2.88;;;;;;;21.80;25.74;101708.53;5000085;28;98055;-71
2021/06/09 03:04:05;;;;;;;2.30;2.20;;;;;;;21.83;25.75;101703.13;5006068;28;96962;-70
2021/06/09 03:06:36;;;;;;;2.55;2.45;;;;;;;21.85;26.18;101708.50;4988129;28;97231;-71
2021/06/09 03:09:06;;;;;;;4.07;2.78;;;;;;;21.80;26.33;101710.34;5005556;28;99011;-71
2021/06/09 03:11:40;;;;;;;4.88;2.55;;;;;;;21.77;25.91;101719.44;5000685;28;97625;-71
2021/06/09 03:14:27;;;;;;;2.77;2.63;;;;;;;21.73;26.10;101717.66;5008706;28;96886;-71
2021/06/09 03:16:57;;;;;;;2.80;2.60;;;;;;;21.74;25.80;101711.31;5001042;28;97108;-71
2021/06/09 03:19:36;;;;;;;2.73;2.50;;;;;;;21.72;25.92;101707.75;5006836;28;98957;-71
2021/06/09 03:22:13;;;;;;;3.30;3.00;;;;;;;21.74;26.17;101705.00;4998179;28;100526;-71
2021/06/09 03:24:46;;;;;;;2.67;2.47;;;;;;;21.70;26.29;101719.50;5003000;28;97120;-71
2021/06/09 03:27:17;;;;;;;2.63;2.42;;;;;;;21.66;26.45;101718.59;5006410;28;97041;-71
2021/06/09 03:29:47;;;;;;;3.03;2.60;;;;;;;21.68;26.12;101714.06;5004533;28;97982;-71
2021/06/09 03:32:18;;;;;;;2.60;2.40;;;;;;;21.62;26.19;101714.13;4984118;28;99795;-71
2021/06/09 03:34:53;;;;;;;7.03;6.38;;;;;;;21.63;26.08;101715.94;4983398;28;96895;-70
2021/06/09 03:37:23;;;;;;;3.03;2.73;;;;;;;21.60;26.20;101715.03;4997186;28;96666;-71
2021/06/09 03:39:56;;;;;;;2.40;2.30;;;;;;;21.57;26.25;101715.97;5003585;28;100741;-71
2021/06/09 03:42:28;;;;;;;2.90;2.70;;;;;;;21.55;26.16;101715.09;5006045;28;98625;-71
2021/06/09 03:44:57;;;;;;;2.75;2.65;;;;;;;21.53;26.10;101714.22;5007613;28;96769;-71
2021/06/09 03:47:25;;;;;;;2.60;2.50;;;;;;;21.54;26.25;101707.84;5013960;28;97088;-71
2021/06/09 03:49:55;;;;;;;5.60;2.55;;;;;;;21.58;25.98;101716.88;5020247;28;98574;-72
2021/06/09 03:52:23;;;;;;;2.95;2.75;;;;;;;21.52;26.59;101712.44;5000112;28;100003;-71
2021/06/09 03:54:54;;;;;;;2.75;2.55;;;;;;;21.50;26.36;101718.75;5012137;28;98925;-71
2021/06/09 03:57:24;;;;;;;3.15;2.40;;;;;;;21.48;26.44;101721.50;5022859;28;97254;-71
2021/06/09 03:59:52;;;;;;;3.10;2.90;;;;;;;21.54;26.46;101721.41;5021063;28;97180;-71
2021/06/09 04:02:21;;;;;;;131.80;75.82;;;;;;;21.52;26.39;101722.34;5016958;28;98111;-71
2021/06/09 04:04:52;;;;;;;6.95;6.25;;;;;;;21.54;26.66;101721.41;5025265;28;97941;-71
2021/06/09 04:07:22;;;;;;;3.90;2.92;;;;;;;21.55;26.49;101723.22;5034734;28;96934;-71
2021/06/09 04:09:51;;;;;;;2.90;2.70;;;;;;;21.62;26.74;101719.53;5026862;28;98871;-71
2021/06/09 04:12:18;;;;;;;2.95;2.75;;;;;;;21.58;26.23;101715.06;5023222;28;99167;-70
2021/06/09 04:14:47;;;;;;;2.88;2.78;;;;;;;21.55;26.37;101712.38;5014173;28;97179;-71
2021/06/09 04:17:18;;;;;;;2.40;2.30;;;;;;;21.58;26.46;101706.06;5009770;28;98123;-71
2021/06/09 04:19:47;;;;;;;15.73;13.93;;;;;;;21.58;26.80;101708.75;5005030;28;97287;-70
2021/06/09 04:22:15;;;;;;;66.72;45.42;;;;;;;21.54;26.43;101709.69;5010807;27;97695;-71
2021/06/09 04:24:44;;;;;;;7.13;5.13;;;;;;;21.53;26.51;101716.00;5011696;28;97398;-71
2021/06/09 04:27:14;;;;;;;4.77;4.10;;;;;;;21.55;26.88;101716.91;5009847;28;97348;-71
2021/06/09 04:29:42;;;;;;;4.40;3.92;;;;;;;21.58;26.57;101717.75;5010726;28;97675;-71
2021/06/09 04:32:10;;;;;;;3.92;3.60;;;;;;;21.54;26.57;101721.41;5016163;28;98070;-71
2021/06/09 04:34:45;;;;;;;4.30;3.42;;;;;;;21.54;26.74;101721.41;4995957;28;96753;-73
2021/06/09 04:37:14;;;;;;;3.40;3.10;;;;;;;21.55;27.14;101715.09;5011282;28;97390;-71
2021/06/09 04:39:41;;;;;;;18.77;11.40;;;;;;;21.59;27.17;101713.25;5014398;28;97010;-70
2021/06/09 04:42:10;;;;;;;4.65;3.80;;;;;;;21.60;27.53;101715.94;4997377;28;101183;-71
2021/06/09 04:44:39;;;;;;;2.70;2.50;;;;;;;21.66;27.97;101705.06;5015443;27;97437;-70
2021/06/09 04:47:07;;;;;;;4.95;3.20;;;;;;;21.66;28.61;101718.59;4987156;28;96908;-70
2021/06/09 04:49:37;;;;;;;4.93;4.47;;;;;;;21.65;28.60;101714.06;5000009;28;100743;-70
2021/06/09 04:52:05;;;;;;;26.58;17.90;;;;;;;21.66;29.01;101709.56;5006372;27;98232;-70
2021/06/09 04:54:32;;;;;;;26.42;19.13;;;;;;;21.58;29.49;101706.06;4980161;28;97367;-70
2021/06/09 04:57:00;;;;;;;4.50;4.13;;;;;;;21.60;29.68;101710.53;5000769;28;96858;-71
2021/06/09 04:59:28;;;;;;;8.05;6.93;;;;;;;21.58;30.17;101706.94;5003616;28;97251;-71
2021/06/09 05:01:56;;;;;;;14.77;9.98;;;;;;;21.59;30.00;101714.16;5005806;28;97974;-71
2021/06/09 05:04:23;;;;;;;4.95;4.45;;;;;;;21.60;30.06;101715.94;5005914;28;96852;-70
2021/06/09 05:06:51;;;;;;;6.72;5.40;;;;;;;21.59;30.02;101719.56;5001141;28;97276;-71
2021/06/09 05:09:18;;;;;;;6.67;5.33;;;;;;;21.57;30.21;101715.06;5005946;28;100887;-71
2021/06/09 05:11:50;;;;;;;4.90;4.40;;;;;;;21.56;30.38;101711.47;5008373;28;99370;-70
2021/06/09 05:14:22;;;;;;;8.63;5.15;;;;;;;21.55;30.33;101706.06;5005513;28;96910;-70
2021/06/09 05:16:52;;;;;;;3.70;3.40;;;;;;;21.53;30.63;101708.78;5007799;28;97814;-71
2021/06/09 05:19:22;;;;;;;5.22;3.58;;;;;;;21.58;30.50;101712.34;5007810;28;97294;-71
2021/06/09 05:21:51;;;;;;;3.75;3.40;;;;;;;21.55;30.22;101712.38;5001080;28;99369;-71
2021/06/09 05:24:20;;;;;;;3.85;3.55;;;;;;;21.58;30.06;101719.59;4996258;28;96850;-71
2021/06/09 05:26:48;;;;;;;3.58;3.28;;;;;;;21.62;29.75;101719.53;5005677;28;97217;-71
2021/06/09 05:29:17;;;;;;;5.10;3.10;;;;;;;21.62;29.81;101716.81;5004686;28;99537;-70
2021/06/09 05:31:46;;;;;;;3.90;3.50;;;;;;;21.64;30.39;101706.88;5007144;28;99617;-70
2021/06/09 05:34:15;;;;;;;3.77;3.30;;;;;;;21.68;30.95;101716.78;5006769;28;97748;-71
2021/06/09 05:36:43;;;;;;;4.13;3.65;;;;;;;21.71;30.99;101707.72;4989210;28;97244;-71
2021/06/09 05:39:11;;;;;;;3.47;3.22;;;;;;;21.74;30.84;101707.72;5018835;28;97749;-71
2021/06/09 05:41:39;;;;;;;4.70;3.23;;;;;;;21.76;30.65;101708.59;5008070;28;97903;-71
2021/06/09 05:44:06;;;;;;;3.58;3.20;;;;;;;21.69;29.97;101699.63;5006353;28;97218;-71
2021/06/09 05:46:34;;;;;;;3.22;2.90;;;;;;;21.73;29.75;101714.94;5007234;28;96934;-71
2021/06/09 05:49:01;;;;;;;3.63;3.33;;;;;;;21.72;29.95;101706.84;5003935;28;98452;-69
2021/06/09 05:51:30;;;;;;;3.27;3.00;;;;;;;21.77;29.59;101705.88;5003639;28;98261;-69
2021/06/09 05:53:57;;;;;;;3.00;2.80;;;;;;;21.78;28.96;101709.50;4988556;28;96940;-69
2021/06/09 05:56:26;;;;;;;3.20;2.72;;;;;;;21.81;28.86;101710.34;5008568;28;96977;-69
2021/06/09 05:58:54;;;;;;;4.75;4.30;;;;;;;21.86;28.97;101713.00;5001322;28;98131;-69
2021/06/09 06:01:22;;;;;;;4.50;4.10;;;;;;;21.88;29.17;101713.88;5007865;28;99540;-69
2021/06/09 06:03:49;;;;;;;3.80;3.40;;;;;;;21.94;28.87;101714.69;5004972;28;97168;-69
2021/06/09 06:06:18;;;;;;;3.10;2.90;;;;;;;22.00;28.76;101716.44;5005304;28;97831;-69
2021/06/09 06:08:47;;;;;;;2.90;2.70;;;;;;;22.02;28.21;101719.16;5006209;28;97068;-69
2021/06/09 06:11:15;;;;;;;3.20;2.90;;;;;;;22.05;28.00;101719.13;5014807;27;99234;-69
2021/06/09 06:13:44;;;;;;;4.10;3.70;;;;;;;22.08;27.87;101717.28;5002695;28;98120;-69
2021/06/09 06:16:14;;;;;;;4.20;3.87;;;;;;;22.10;27.90;101715.44;5008205;28;97277;-72
2021/06/09 06:18:42;;;;;;;6.00;5.40;;;;;;;22.14;27.57;101716.31;5003122;28;99699;-70
2021/06/09 06:21:11;;;;;;;4.80;4.27;;;;;;;22.14;27.72;101719.00;5010311;27;97776;-69
2021/06/09 06:23:39;;;;;;;4.87;4.10;;;;;;;22.18;27.73;101715.34;5002853;28;98698;-70
2021/06/09 06:26:12;;;;;;;10.43;7.03;;;;;;;22.21;27.69;101718.03;5016497;28;97298;-70
2021/06/09 06:28:40;;;;;;;3.63;3.42;;;;;;;22.32;27.58;101725.16;4984311;28;100059;-70
2021/06/09 06:31:11;;;;;;;3.22;3.00;;;;;;;22.33;27.40;101720.63;4989431;28;99405;-71
2021/06/09 06:33:41;;;;;;;3.30;2.90;;;;;;;22.30;26.90;101716.13;4989282;28;97780;-69
2021/06/09 06:36:09;;;;;;;2.80;2.50;;;;;;;22.33;27.00;101715.22;5024680;22;98796;-70
2021/06/09 06:38:37;;;;;;;2.85;2.65;;;;;;;22.30;26.76;101721.56;5003955;28;97440;-70
2021/06/09 06:41:06;;;;;;;2.57;2.47;;;;;;;22.34;26.75;101715.19;5002898;28;98790;-70
2021/06/09 06:43:36;;;;;;;2.97;2.70;;;;;;;22.45;26.95;101718.66;5009766;28;97153;-69
2021/06/09 06:46:03;;;;;;;2.50;2.40;;;;;;;22.46;26.95;101717.72;5023943;28;97388;-68
2021/06/09 06:48:32;;;;;;;3.03;2.83;;;;;;;22.47;27.01;101718.63;4999855;28;100574;-69
2021/06/09 06:51:00;;;;;;;9.73;7.37;;;;;;;22.57;26.51;101713.06;5006744;28;99456;-69
2021/06/09 06:53:27;;;;;;;6.85;4.70;;;;;;;22.58;26.51;101705.81;5018084;28;96954;-70
2021/06/09 06:55:57;;;;;;;4.25;3.85;;;;;;;22.55;26.51;101711.25;5005864;28;96849;-70
2021/06/09 06:58:26;;;;;;;3.50;3.30;;;;;;;22.55;26.75;101709.47;5006442;28;97884;-70
2021/06/09 07:00:54;;;;;;;6.90;6.32;;;;;;;22.54;26.86;101710.41;5004395;28;100668;-69
2021/06/09 07:03:22;;;;;;;3.05;2.67;;;;;;;22.56;26.41;101713.09;5005104;28;97678;-70
2021/06/09 07:05:50;;;;;;;4.10;2.85;;;;;;;22.50;26.22;101716.78;5008950;28;97125;-69
2021/06/09 07:08:17;;;;;;;3.92;3.10;;;;;;;22.49;25.80;101717.66;5022086;28;98263;-69
2021/06/09 07:10:45;;;;;;;2.63;2.47;;;;;;;22.48;25.60;101721.31;5000581;28;99593;-70
2021/06/09 07:13:12;;;;;;;2.80;2.60;;;;;;;22.47;25.82;101721.34;5021056;28;96805;-70
2021/06/09 07:15:40;;;;;;;2.55;2.42;;;;;;;22.45;25.67;101723.19;5004200;28;98123;-72
2021/06/09 07:18:09;;;;;;;7.68;6.93;;;;;;;22.48;25.62;101725.84;5003793;28;98975;-70
2021/06/09 07:20:37;;;;;;;4.40;4.00;;;;;;;22.50;25.71;101724.00;5018459;28;96823;-70
2021/06/09 07:23:04;;;;;;;3.95;3.50;;;;;;;22.51;25.66;101707.69;5000210;28;96841;-69
2021/06/09 07:25:32;;;;;;;4.13;3.80;;;;;;;22.57;26.24;101714.84;5007861;28;97432;-69
2021/06/09 07:28:04;;;;;;;3.43;2.83;;;;;;;22.58;26.19;101719.38;5005816;28;99346;-69
2021/06/09 07:30:34;;;;;;;2.67;2.40;;;;;;;22.69;25.93;101712.00;5007103;28;98551;-70
2021/06/09 07:33:03;;;;;;;2.40;2.30;;;;;;;22.79;26.02;101719.97;5009345;28;98006;-70
2021/06/09 07:35:32;;;;;;;2.60;2.20;;;;;;;22.88;25.84;101720.81;5019213;28;97282;-70
2021/06/09 07:38:02;;;;;;;2.25;2.13;;;;;;;22.91;25.76;101721.66;5020323;28;97693;-70
2021/06/09 07:40:32;;;;;;;2.40;2.30;;;;;;;22.98;25.78;101723.34;4996683;28;97764;-70
2021/06/09 07:43:03;;;;;;;3.33;2.00;;;;;;;23.03;25.45;101724.16;5007835;28;97705;-70
2021/06/09 07:45:31;;;;;;;2.95;2.65;;;;;;;23.05;25.33;101727.75;5023634;28;96906;-69
2021/06/09 07:48:00;;;;;;;3.37;3.17;;;;;;;23.14;24.89;101735.75;5026114;28;98049;-70
2021/06/09 07:50:29;;;;;;;2.50;2.30;;;;;;;23.20;25.00;101723.91;5020045;28;97574;-69
2021/06/09 07:53:06;;;;;;;3.35;3.05;;;;;;;23.25;24.70;101730.16;5020510;28;97238;-70
2021/06/09 07:55:34;;;;;;;2.95;2.75;;;;;;;23.31;24.92;101732.78;5021072;28;97452;-69
2021/06/09 07:58:04;;;;;;;2.37;2.27;;;;;;;23.35;24.99;101727.28;5006341;28;97803;-70
2021/06/09 08:00:32;;;;;;;2.17;2.00;;;;;;;23.42;24.69;101720.81;5024007;28;97814;-70
2021/06/09 08:03:00;;;;;;;2.60;2.40;;;;;;;23.50;24.96;101717.97;5001794;28;97097;-70
2021/06/09 08:05:28;;;;;;;2.53;2.10;;;;;;;23.58;24.95;101716.94;5002219;28;96940;-70
2021/06/09 08:07:57;;;;;;;2.30;2.10;;;;;;;23.61;24.59;101721.41;5015581;28;97633;-70
2021/06/09 08:10:41;;;;;;;2.00;1.90;;;;;;;23.64;24.59;101716.81;5028411;27;98885;-70
2021/06/09 08:13:10;;;;;;;2.20;2.10;;;;;;;23.68;24.86;101723.06;5015001;28;97108;-70
2021/06/09 08:15:39;;;;;;;1.95;1.95;;;;;;;23.73;24.51;101718.47;5004145;28;97340;-70
2021/06/09 08:18:06;;;;;;;2.05;2.05;;;;;;;23.71;24.06;101725.75;5005552;28;97894;-71
2021/06/09 08:20:35;;;;;;;1.95;1.90;;;;;;;23.75;24.13;101725.66;5006117;28;96995;-69
2021/06/09 08:23:04;;;;;;;3.20;2.60;;;;;;;23.80;24.60;101720.16;5020347;28;98548;-70
2021/06/09 08:25:32;;;;;;;3.10;2.43;;;;;;;23.83;24.46;101718.28;5017781;28;96960;-69
2021/06/09 08:27:59;;;;;;;3.73;2.90;;;;;;;23.80;24.42;101718.34;5022917;28;97705;-70
2021/06/09 08:30:27;;;;;;;3.90;3.60;;;;;;;23.84;23.95;101720.03;5004097;28;99187;-70
2021/06/09 08:32:54;;;;;;;3.00;2.80;;;;;;;24.00;23.67;101717.97;5007747;28;96695;-70
2021/06/09 08:35:25;;;;;;;2.10;2.00;;;;;;;24.03;23.69;101712.47;5004371;28;96770;-70
2021/06/09 08:37:52;;;;;;;2.63;2.43;;;;;;;24.05;23.65;101716.06;5004662;28;99881;-69
2021/06/09 08:40:21;;;;;;;2.08;1.98;;;;;;;24.10;23.94;101715.97;5027342;28;98790;-70
2021/06/09 08:42:50;;;;;;;6.30;2.30;;;;;;;24.15;24.01;101714.06;5009970;28;97335;-70
2021/06/09 08:45:18;;;;;;;2.00;1.90;;;;;;;24.13;24.36;101715.91;5029196;28;97434;-70
2021/06/09 08:47:46;;;;;;;2.10;2.00;;;;;;;24.01;24.30;101718.88;5023414;27;99326;-69
2021/06/09 08:50:14;;;;;;;6.65;5.50;;;;;;;23.98;23.66;101717.13;5023697;28;98101;-71
2021/06/09 08:52:46;;;;;;;2.67;2.47;;;;;;;23.98;24.05;101718.94;5003982;28;96976;-70
2021/06/09 08:55:13;;;;;;;4.83;4.30;;;;;;;23.99;24.12;101718.00;5007633;28;96869;-71
2021/06/09 08:57:47;;;;;;;2.50;2.30;;;;;;;24.04;24.63;101716.09;5031849;27;101990;-71
2021/06/09 09:00:17;;;;;;;2.73;2.53;;;;;;;24.09;24.65;101715.06;5009131;28;99055;-71
2021/06/09 09:02:46;;;;;;;1.80;1.70;;;;;;;24.12;24.44;101725.88;5015349;28;97205;-71
2021/06/09 09:05:14;;;;;;;3.05;2.85;;;;;;;24.16;23.47;101705.84;5025951;28;97137;-70
2021/06/09 09:07:41;;;;;;;5.13;4.63;;;;;;;24.24;23.69;101719.31;5022575;28;97678;-71
2021/06/09 09:10:11;;;;;;;4.00;3.60;;;;;;;24.25;23.62;101721.09;5018637;28;98724;-70
2021/06/09 09:12:38;;;;;;;3.03;2.00;;;;;;;24.28;23.16;101718.31;5025122;28;96934;-71
2021/06/09 09:15:08;;;;;;;16.30;12.25;;;;;;;24.28;23.33;101715.59;5020973;28;97612;-70
2021/06/09 09:17:49;;;;;;;1.48;1.48;;;;;;;24.28;22.54;101723.75;5005692;28;100763;-70
2021/06/09 09:20:23;;;;;;;1.50;1.50;;;;;;;24.23;22.01;101722.94;5023961;28;98684;-71
2021/06/09 09:22:52;;;;;;;4.90;4.43;;;;;;;24.24;21.90;101712.06;5009538;28;97204;-71
2021/06/09 09:25:21;;;;;;;2.60;2.40;;;;;;;24.27;22.25;101719.22;5006020;28;96880;-70
2021/06/09 09:27:53;;;;;;;1.80;1.80;;;;;;;24.27;22.99;101720.13;5003567;28;102033;-70
2021/06/09 09:30:22;;;;;;;1.70;1.60;;;;;;;24.29;22.74;101722.81;5007659;28;99334;-70
2021/06/09 09:32:59;;;;;;;2.00;1.90;;;;;;;24.36;22.54;101721.75;5028345;28;96737;-71
2021/06/09 09:35:28;;;;;;;50.95;32.08;;;;;;;24.41;23.01;101718.00;5000247;28;97029;-70
2021/06/09 09:38:09;;;;;;;5.75;5.22;;;;;;;24.50;23.03;101723.28;5003762;28;100768;-71
2021/06/09 09:40:37;;;;;;;2.03;1.92;;;;;;;24.55;22.58;101726.84;5023295;28;97820;-70
2021/06/09 09:43:04;;;;;;;2.08;1.98;;;;;;;24.64;23.05;101731.16;5019829;28;97212;-70
2021/06/09 09:45:34;;;;;;;1.42;1.42;;;;;;;24.69;22.54;101723.78;5024307;28;96918;-70
2021/06/09 09:48:08;;;;;;;6.47;5.88;;;;;;;24.69;22.28;101726.50;5025413;28;98664;-71
2021/06/09 09:50:37;;;;;;;9.90;9.00;;;;;;;24.75;22.14;101729.09;5027258;28;98828;-70
2021/06/09 09:53:18;;;;;;;3.55;3.28;;;;;;;24.82;21.96;101725.31;5023234;28;97458;-69
2021/06/09 09:56:02;;;;;;;1.60;1.60;;;;;;;24.83;22.01;101721.63;5022143;28;96818;-70
2021/06/09 09:58:31;;;;;;;7.30;6.13;;;;;;;24.87;21.83;101728.81;5016571;28;97786;-70
2021/06/09 10:01:13;;;;;;;18.80;14.13;;;;;;;24.89;22.08;101721.50;5009715;28;97249;-70
2021/06/09 10:03:41;;;;;;;25.17;21.38;;;;;;;24.94;22.63;101714.13;5004171;28;98241;-68
2021/06/09 10:06:27;;;;;;;10.52;9.50;;;;;;;24.99;22.54;101714.06;5003794;28;97359;-70
2021/06/09 10:08:56;;;;;;;4.25;3.88;;;;;;;25.02;22.21;101705.78;5007238;28;100658;-71
2021/06/09 10:11:24;;;;;;;63.00;41.42;;;;;;;25.10;22.90;101704.69;4998424;28;98188;-71
2021/06/09 10:13:51;;;;;;;4.97;4.57;;;;;;;25.14;22.46;101706.38;5017462;28;96771;-71
2021/06/09 10:16:41;;;;;;;2.10;2.00;;;;;;;25.12;22.37;101707.38;5000009;28;96800;-71
2021/06/09 10:19:10;;;;;;;2.20;2.10;;;;;;;25.13;22.72;101703.69;5000477;28;98175;-71
2021/06/09 10:21:50;;;;;;;1.92;1.83;;;;;;;25.18;22.21;101702.66;5003060;28;98897;-70
2021/06/09 10:24:17;;;;;;;2.60;2.50;;;;;;;25.20;22.25;101689.00;5005919;28;96870;-70
2021/06/09 10:26:52;;;;;;;2.20;2.10;;;;;;;25.24;22.21;101691.63;5006866;28;97568;-69
2021/06/09 10:29:21;;;;;;;2.57;2.40;;;;;;;25.29;21.85;101695.09;5021317;28;97614;-71
2021/06/09 10:31:52;;;;;;;2.10;2.00;;;;;;;25.34;22.41;101692.28;5020113;28;97972;-70
2021/06/09 10:34:22;;;;;;;2.13;2.00;;;;;;;25.39;22.55;101688.50;5005393;28;98027;-70
2021/06/09 10:36:51;;;;;;;2.17;2.08;;;;;;;25.42;22.98;101687.50;5007461;28;97360;-70
2021/06/09 10:39:19;;;;;;;3.03;2.40;;;;;;;25.66;22.66;101695.06;5007689;28;97714;-69
2021/06/09 10:41:49;;;;;;;2.63;2.50;;;;;;;25.60;22.48;101689.78;5021867;28;97560;-71
2021/06/09 10:44:18;;;;;;;4.00;2.60;;;;;;;25.61;22.64;101684.28;5006341;28;98551;-71
2021/06/09 10:46:47;;;;;;;2.30;2.20;;;;;;;25.65;22.84;101682.34;5018607;27;96983;-70
2021/06/09 10:49:18;;;;;;;2.70;2.60;;;;;;;25.69;23.14;101684.97;5005091;28;97737;-70
2021/06/09 10:51:46;;;;;;;2.38;2.28;;;;;;;25.92;22.77;101691.63;5005381;28;99018;-68
2021/06/09 10:54:14;;;;;;;2.17;2.08;;;;;;;25.89;22.95;101681.69;4996849;28;97222;-68
2021/06/09 10:56:44;;;;;;;2.67;2.30;;;;;;;25.84;22.95;101678.19;5005669;28;97098;-68
2021/06/09 10:59:13;;;;;;;2.60;2.40;;;;;;;25.71;22.98;101674.94;5007095;28;100779;-70
2021/06/09 11:01:40;;;;;;;2.80;2.70;;;;;;;25.71;23.38;101683.09;5009016;28;99122;-71
2021/06/09 11:04:08;;;;;;;3.17;3.08;;;;;;;25.75;23.05;101683.91;5022256;28;97377;-70
2021/06/09 11:06:39;;;;;;;2.92;2.72;;;;;;;25.75;22.84;101676.63;5019276;28;97205;-70
2021/06/09 11:09:15;;;;;;;3.28;3.00;;;;;;;25.76;22.33;101670.22;5022960;28;99027;-70
2021/06/09 11:11:43;;;;;;;3.33;3.10;;;;;;;25.79;22.70;101675.59;4998425;28;100960;-70
2021/06/09 11:14:21;;;;;;;21.42;15.57;;;;;;;25.97;23.35;101668.78;5000680;28;97275;-70
2021/06/09 11:16:50;;;;;;;12.65;9.23;;;;;;;25.94;22.84;101677.03;5019912;28;96839;-71
2021/06/09 11:19:37;;;;;;;4.80;3.50;;;;;;;25.93;22.86;101674.31;5008371;28;96998;-70
2021/06/09 11:22:18;;;;;;;3.53;3.23;;;;;;;25.94;22.65;101665.19;5002244;28;97869;-70
2021/06/09 11:25:15;;;;;;;2.92;2.83;;;;;;;26.13;22.48;101670.09;5015783;28;97973;-68
2021/06/09 11:27:53;;;;;;;2.78;2.65;;;;;;;26.15;22.80;101661.88;5022109;28;98143;-68
2021/06/09 11:30:50;;;;;;;3.90;2.83;;;;;;;26.28;22.52;101660.56;5007119;28;100500;-68
2021/06/09 11:33:41;;;;;;;3.08;2.90;;;;;;;26.35;22.49;101656.72;5015716;27;98955;-68
2021/06/09 11:36:27;;;;;;;3.05;2.95;;;;;;;26.33;23.08;101656.75;5016892;28;97571;-67
2021/06/09 11:38:57;;;;;;;3.50;3.22;;;;;;;26.33;22.88;101655.84;5004556;28;97439;-67
2021/06/09 11:41:28;;;;;;;3.58;3.38;;;;;;;26.34;22.86;101647.63;5002919;28;99681;-68